sensor_id;sensor_type;location;lat;lon;timestamp;P1;durP1;ratioP1;P2;durP2;ratioP2
3939;SDS011;1984;48.312;9.244;2023-12-20T00:01:39;2.83;;;2.23;;
3939;SDS011;1984;48.312;9.244;2023-12-20T00:04:05;2.00;;;1.87;;
3939;SDS011;1984;48.312;9.244;2023-12-20T00:06:31;2.73;;;1.87;;
3939;SDS011;1984;48.312;9.244;2023-12-20T00:08:56;2.00;;;1.90;;
3939;SDS011;1984;48.312;9.244;2023-12-20T00:11:25;2.93;;;2.30;;
3939;SDS011;1984;48.312;9.244;2023-12-20T00:13:50;4.10;;;2.17;;
3939;SDS011;1984;48.312;9.244;2023-12-20T00:16:16;2.50;;;2.03;;
3939;SDS011;1984;48.312;9.244;2023-12-20T00:18:42;2.90;;;2.10;;
3939;SDS011;1984;48.312;9.244;2023-12-20T00:21:07;2.20;;;2.00;;
3939;SDS011;1984;48.312;9.244;2023-12-20T00:23:33;3.17;;;2.07;;
3939;SDS011;1984;48.312;9.244;2023-12-20T00:25:58;3.13;;;2.10;;
3939;SDS011;1984;48.312;9.244;2023-12-20T00:28:24;2.30;;;2.20;;
3939;SDS011;1984;48.312;9.244;2023-12-20T00:30:49;2.07;;;1.90;;
3939;SDS011;1984;48.312;9.244;2023-12-20T00:33:15;2.40;;;2.20;;
3939;SDS011;1984;48.312;9.244;2023-12-20T00:35:40;3.20;;;2.27;;
3939;SDS011;1984;48.312;9.244;2023-12-20T00:38:06;2.50;;;2.27;;
3939;SDS011;1984;48.312;9.244;2023-12-20T00:40:33;2.60;;;2.40;;
3939;SDS011;1984;48.312;9.244;2023-12-20T00:42:59;2.30;;;1.90;;
3939;SDS011;1984;48.312;9.244;2023-12-20T00:45:24;2.30;;;1.70;;
3939;SDS011;1984;48.312;9.244;2023-12-20T00:47:50;1.77;;;1.67;;
3939;SDS011;1984;48.312;9.244;2023-12-20T00:50:16;3.20;;;1.93;;
3939;SDS011;1984;48.312;9.244;2023-12-20T00:52:41;4.40;;;2.00;;
3939;SDS011;1984;48.312;9.244;2023-12-20T00:55:07;2.07;;;1.90;;
3939;SDS011;1984;48.312;9.244;2023-12-20T00:57:32;1.97;;;1.87;;
3939;SDS011;1984;48.312;9.244;2023-12-20T00:59:58;1.90;;;1.80;;
3939;SDS011;1984;48.312;9.244;2023-12-20T01:02:23;2.10;;;2.00;;
3939;SDS011;1984;48.312;9.244;2023-12-20T01:04:49;3.50;;;1.90;;
3939;SDS011;1984;48.312;9.244;2023-12-20T01:07:14;1.90;;;1.80;;
3939;SDS011;1984;48.312;9.244;2023-12-20T01:09:40;2.23;;;1.80;;
3939;SDS011;1984;48.312;9.244;2023-12-20T01:12:05;1.70;;;1.60;;
3939;SDS011;1984;48.312;9.244;2023-12-20T01:14:31;2.13;;;1.97;;
3939;SDS011;1984;48.312;9.244;2023-12-20T01:16:56;1.70;;;1.60;;
3939;SDS011;1984;48.312;9.244;2023-12-20T01:19:22;2.00;;;1.83;;
3939;SDS011;1984;48.312;9.244;2023-12-20T01:21:49;13.43;;;2.27;;
3939;SDS011;1984;48.312;9.244;2023-12-20T01:24:15;1.80;;;1.70;;
3939;SDS011;1984;48.312;9.244;2023-12-20T01:26:40;2.00;;;1.63;;
3939;SDS011;1984;48.312;9.244;2023-12-20T01:29:06;2.00;;;1.80;;
3939;SDS011;1984;48.312;9.244;2023-12-20T01:31:32;1.70;;;1.60;;
3939;SDS011;1984;48.312;9.244;2023-12-20T01:33:57;1.63;;;1.53;;
3939;SDS011;1984;48.312;9.244;2023-12-20T01:36:23;1.60;;;1.50;;
3939;SDS011;1984;48.312;9.244;2023-12-20T01:38:48;1.80;;;1.70;;
3939;SDS011;1984;48.312;9.244;2023-12-20T01:41:14;5.03;;;1.80;;
3939;SDS011;1984;48.312;9.244;2023-12-20T01:43:40;1.87;;;1.77;;
3939;SDS011;1984;48.312;9.244;2023-12-20T01:46:05;1.73;;;1.63;;
3939;SDS011;1984;48.312;9.244;2023-12-20T01:48:31;1.90;;;1.70;;
3939;SDS011;1984;48.312;9.244;2023-12-20T01:50:57;1.67;;;1.57;;
3939;SDS011;1984;48.312;9.244;2023-12-20T01:53:25;2.50;;;2.30;;
3939;SDS011;1984;48.312;9.244;2023-12-20T01:55:52;2.20;;;2.10;;
3939;SDS011;1984;48.312;9.244;2023-12-20T01:58:21;2.00;;;1.90;;
3939;SDS011;1984;48.312;9.244;2023-12-20T02:00:48;2.43;;;2.00;;
3939;SDS011;1984;48.312;9.244;2023-12-20T02:03:23;2.53;;;2.33;;
3939;SDS011;1984;48.312;9.244;2023-12-20T02:05:49;2.20;;;2.00;;
3939;SDS011;1984;48.312;9.244;2023-12-20T02:08:15;2.97;;;2.10;;
3939;SDS011;1984;48.312;9.244;2023-12-20T02:10:41;2.40;;;1.90;;
3939;SDS011;1984;48.312;9.244;2023-12-20T02:13:07;2.30;;;2.10;;
3939;SDS011;1984;48.312;9.244;2023-12-20T02:15:32;2.10;;;2.00;;
3939;SDS011;1984;48.312;9.244;2023-12-20T02:17:58;3.10;;;2.30;;
3939;SDS011;1984;48.312;9.244;2023-12-20T02:20:24;3.50;;;2.90;;
3939;SDS011;1984;48.312;9.244;2023-12-20T02:22:49;2.63;;;2.43;;
3939;SDS011;1984;48.312;9.244;2023-12-20T02:25:15;3.20;;;1.90;;
3939;SDS011;1984;48.312;9.244;2023-12-20T02:27:40;2.10;;;2.00;;
3939;SDS011;1984;48.312;9.244;2023-12-20T02:30:06;2.10;;;1.90;;
3939;SDS011;1984;48.312;9.244;2023-12-20T02:32:32;6.53;;;2.10;;
3939;SDS011;1984;48.312;9.244;2023-12-20T02:34:58;2.90;;;2.17;;
3939;SDS011;1984;48.312;9.244;2023-12-20T02:37:23;2.80;;;2.00;;
3939;SDS011;1984;48.312;9.244;2023-12-20T02:39:49;1.83;;;1.70;;
3939;SDS011;1984;48.312;9.244;2023-12-20T02:42:14;2.27;;;2.07;;
3939;SDS011;1984;48.312;9.244;2023-12-20T02:44:40;2.10;;;1.80;;
3939;SDS011;1984;48.312;9.244;2023-12-20T02:47:05;1.70;;;1.53;;
3939;SDS011;1984;48.312;9.244;2023-12-20T02:49:31;1.90;;;1.80;;
3939;SDS011;1984;48.312;9.244;2023-12-20T02:51:57;3.33;;;2.33;;
3939;SDS011;1984;48.312;9.244;2023-12-20T02:54:22;2.60;;;2.40;;
3939;SDS011;1984;48.312;9.244;2023-12-20T02:56:48;4.80;;;2.03;;
3939;SDS011;1984;48.312;9.244;2023-12-20T02:59:13;2.30;;;2.10;;
3939;SDS011;1984;48.312;9.244;2023-12-20T03:01:43;2.43;;;2.23;;
3939;SDS011;1984;48.312;9.244;2023-12-20T03:04:09;1.73;;;1.63;;
3939;SDS011;1984;48.312;9.244;2023-12-20T03:06:35;3.63;;;3.23;;
3939;SDS011;1984;48.312;9.244;2023-12-20T03:09:00;2.47;;;2.37;;
3939;SDS011;1984;48.312;9.244;2023-12-20T03:11:29;2.77;;;1.80;;
3939;SDS011;1984;48.312;9.244;2023-12-20T03:13:54;2.30;;;2.10;;
3939;SDS011;1984;48.312;9.244;2023-12-20T03:16:20;1.47;;;1.37;;
3939;SDS011;1984;48.312;9.244;2023-12-20T03:18:46;1.63;;;1.50;;
3939;SDS011;1984;48.312;9.244;2023-12-20T03:21:12;1.60;;;1.50;;
3939;SDS011;1984;48.312;9.244;2023-12-20T03:23:37;1.23;;;1.23;;
3939;SDS011;1984;48.312;9.244;2023-12-20T03:26:03;0.80;;;0.80;;
3939;SDS011;1984;48.312;9.244;2023-12-20T03:28:29;0.80;;;0.80;;
3939;SDS011;1984;48.312;9.244;2023-12-20T03:30:55;0.83;;;0.67;;
3939;SDS011;1984;48.312;9.244;2023-12-20T03:33:20;0.73;;;0.73;;
3939;SDS011;1984;48.312;9.244;2023-12-20T03:35:46;0.67;;;0.67;;
3939;SDS011;1984;48.312;9.244;2023-12-20T03:38:11;0.40;;;0.40;;
3939;SDS011;1984;48.312;9.244;2023-12-20T03:40:37;0.60;;;0.60;;
3939;SDS011;1984;48.312;9.244;2023-12-20T03:43:03;0.40;;;0.40;;
3939;SDS011;1984;48.312;9.244;2023-12-20T03:45:28;0.50;;;0.50;;
3939;SDS011;1984;48.312;9.244;2023-12-20T03:47:54;0.47;;;0.47;;
3939;SDS011;1984;48.312;9.244;2023-12-20T03:50:24;0.50;;;0.50;;
3939;SDS011;1984;48.312;9.244;2023-12-20T03:52:50;1.63;;;0.50;;
3939;SDS011;1984;48.312;9.244;2023-12-20T03:55:16;0.67;;;0.40;;
3939;SDS011;1984;48.312;9.244;2023-12-20T03:57:42;0.40;;;0.40;;
3939;SDS011;1984;48.312;9.244;2023-12-20T04:00:08;0.40;;;0.40;;
3939;SDS011;1984;48.312;9.244;2023-12-20T04:02:37;0.40;;;0.40;;
3939;SDS011;1984;48.312;9.244;2023-12-20T04:05:03;0.40;;;0.40;;
3939;SDS011;1984;48.312;9.244;2023-12-20T04:07:29;0.40;;;0.40;;
3939;SDS011;1984;48.312;9.244;2023-12-20T04:09:55;0.40;;;0.40;;
3939;SDS011;1984;48.312;9.244;2023-12-20T04:12:21;0.40;;;0.40;;
3939;SDS011;1984;48.312;9.244;2023-12-20T04:14:46;0.70;;;0.43;;
3939;SDS011;1984;48.312;9.244;2023-12-20T04:17:12;0.50;;;0.50;;
3939;SDS011;1984;48.312;9.244;2023-12-20T04:19:37;0.40;;;0.40;;
3939;SDS011;1984;48.312;9.244;2023-12-20T04:22:03;0.40;;;0.40;;
3939;SDS011;1984;48.312;9.244;2023-12-20T04:24:28;0.40;;;0.40;;
3939;SDS011;1984;48.312;9.244;2023-12-20T04:26:54;0.40;;;0.40;;
3939;SDS011;1984;48.312;9.244;2023-12-20T04:29:19;0.40;;;0.40;;
3939;SDS011;1984;48.312;9.244;2023-12-20T04:31:45;0.40;;;0.40;;
3939;SDS011;1984;48.312;9.244;2023-12-20T04:34:10;0.50;;;0.50;;
3939;SDS011;1984;48.312;9.244;2023-12-20T04:36:36;0.40;;;0.40;;
3939;SDS011;1984;48.312;9.244;2023-12-20T04:39:01;0.30;;;0.30;;
3939;SDS011;1984;48.312;9.244;2023-12-20T04:41:28;1.03;;;0.80;;
3939;SDS011;1984;48.312;9.244;2023-12-20T04:43:53;0.40;;;0.40;;
3939;SDS011;1984;48.312;9.244;2023-12-20T04:46:19;0.40;;;0.40;;
3939;SDS011;1984;48.312;9.244;2023-12-20T04:48:44;0.40;;;0.40;;
3939;SDS011;1984;48.312;9.244;2023-12-20T04:51:10;0.50;;;0.50;;
3939;SDS011;1984;48.312;9.244;2023-12-20T04:53:35;0.50;;;0.50;;
3939;SDS011;1984;48.312;9.244;2023-12-20T04:56:01;0.60;;;0.60;;
3939;SDS011;1984;48.312;9.244;2023-12-20T04:58:26;0.80;;;0.50;;
3939;SDS011;1984;48.312;9.244;2023-12-20T05:00:52;0.50;;;0.50;;
3939;SDS011;1984;48.312;9.244;2023-12-20T05:03:17;0.60;;;0.60;;
3939;SDS011;1984;48.312;9.244;2023-12-20T05:05:43;1.23;;;1.13;;
3939;SDS011;1984;48.312;9.244;2023-12-20T05:08:08;4.20;;;2.00;;
3939;SDS011;1984;48.312;9.244;2023-12-20T05:10:34;0.70;;;0.70;;
3939;SDS011;1984;48.312;9.244;2023-12-20T05:13:01;0.63;;;0.63;;
3939;SDS011;1984;48.312;9.244;2023-12-20T05:15:26;1.13;;;0.60;;
3939;SDS011;1984;48.312;9.244;2023-12-20T05:17:52;0.50;;;0.50;;
3939;SDS011;1984;48.312;9.244;2023-12-20T05:20:18;0.47;;;0.47;;
3939;SDS011;1984;48.312;9.244;2023-12-20T05:22:43;0.40;;;0.40;;
3939;SDS011;1984;48.312;9.244;2023-12-20T05:25:10;0.50;;;0.40;;
3939;SDS011;1984;48.312;9.244;2023-12-20T05:27:35;0.40;;;0.40;;
3939;SDS011;1984;48.312;9.244;2023-12-20T05:30:01;0.40;;;0.40;;
3939;SDS011;1984;48.312;9.244;2023-12-20T05:32:26;0.40;;;0.40;;
3939;SDS011;1984;48.312;9.244;2023-12-20T05:34:52;0.40;;;0.40;;
3939;SDS011;1984;48.312;9.244;2023-12-20T05:37:17;0.40;;;0.40;;
3939;SDS011;1984;48.312;9.244;2023-12-20T05:39:43;0.50;;;0.50;;
3939;SDS011;1984;48.312;9.244;2023-12-20T05:42:08;0.57;;;0.57;;
3939;SDS011;1984;48.312;9.244;2023-12-20T05:44:34;0.50;;;0.50;;
3939;SDS011;1984;48.312;9.244;2023-12-20T05:46:59;0.50;;;0.50;;
3939;SDS011;1984;48.312;9.244;2023-12-20T05:49:25;0.60;;;0.60;;
3939;SDS011;1984;48.312;9.244;2023-12-20T05:51:50;0.50;;;0.50;;
3939;SDS011;1984;48.312;9.244;2023-12-20T05:54:16;0.60;;;0.53;;
3939;SDS011;1984;48.312;9.244;2023-12-20T05:56:41;0.50;;;0.50;;
3939;SDS011;1984;48.312;9.244;2023-12-20T05:59:07;0.40;;;0.40;;
3939;SDS011;1984;48.312;9.244;2023-12-20T06:01:33;0.40;;;0.40;;
3939;SDS011;1984;48.312;9.244;2023-12-20T06:03:58;0.40;;;0.40;;
3939;SDS011;1984;48.312;9.244;2023-12-20T06:06:24;0.40;;;0.40;;
3939;SDS011;1984;48.312;9.244;2023-12-20T06:08:49;0.43;;;0.43;;
3939;SDS011;1984;48.312;9.244;2023-12-20T06:11:15;0.40;;;0.40;;
3939;SDS011;1984;48.312;9.244;2023-12-20T06:13:40;0.40;;;0.40;;
3939;SDS011;1984;48.312;9.244;2023-12-20T06:16:06;0.40;;;0.40;;
3939;SDS011;1984;48.312;9.244;2023-12-20T06:18:34;0.40;;;0.40;;
3939;SDS011;1984;48.312;9.244;2023-12-20T06:21:01;0.40;;;0.40;;
3939;SDS011;1984;48.312;9.244;2023-12-20T06:23:27;0.53;;;0.53;;
3939;SDS011;1984;48.312;9.244;2023-12-20T06:25:53;0.50;;;0.50;;
3939;SDS011;1984;48.312;9.244;2023-12-20T06:28:18;0.50;;;0.50;;
3939;SDS011;1984;48.312;9.244;2023-12-20T06:30:44;0.50;;;0.50;;
3939;SDS011;1984;48.312;9.244;2023-12-20T06:33:10;0.40;;;0.40;;
3939;SDS011;1984;48.312;9.244;2023-12-20T06:35:36;0.60;;;0.60;;
3939;SDS011;1984;48.312;9.244;2023-12-20T06:38:02;0.50;;;0.50;;
3939;SDS011;1984;48.312;9.244;2023-12-20T06:40:27;0.50;;;0.50;;
3939;SDS011;1984;48.312;9.244;2023-12-20T06:42:53;0.50;;;0.50;;
3939;SDS011;1984;48.312;9.244;2023-12-20T06:45:19;0.40;;;0.40;;
3939;SDS011;1984;48.312;9.244;2023-12-20T06:47:44;0.40;;;0.40;;
3939;SDS011;1984;48.312;9.244;2023-12-20T06:50:10;0.37;;;0.37;;
3939;SDS011;1984;48.312;9.244;2023-12-20T06:52:36;0.60;;;0.53;;
3939;SDS011;1984;48.312;9.244;2023-12-20T06:55:01;0.60;;;0.60;;
3939;SDS011;1984;48.312;9.244;2023-12-20T06:57:27;4.10;;;0.50;;
3939;SDS011;1984;48.312;9.244;2023-12-20T06:59:52;1.63;;;0.67;;
3939;SDS011;1984;48.312;9.244;2023-12-20T07:02:18;0.50;;;0.50;;
3939;SDS011;1984;48.312;9.244;2023-12-20T07:04:44;0.50;;;0.50;;
3939;SDS011;1984;48.312;9.244;2023-12-20T07:07:09;0.60;;;0.60;;
3939;SDS011;1984;48.312;9.244;2023-12-20T07:09:35;0.57;;;0.57;;
3939;SDS011;1984;48.312;9.244;2023-12-20T07:12:01;1.27;;;0.50;;
3939;SDS011;1984;48.312;9.244;2023-12-20T07:14:27;0.50;;;0.50;;
3939;SDS011;1984;48.312;9.244;2023-12-20T07:16:53;0.50;;;0.50;;
3939;SDS011;1984;48.312;9.244;2023-12-20T07:19:18;2.40;;;0.60;;
3939;SDS011;1984;48.312;9.244;2023-12-20T07:21:44;0.40;;;0.40;;
3939;SDS011;1984;48.312;9.244;2023-12-20T07:24:09;0.50;;;0.50;;
3939;SDS011;1984;48.312;9.244;2023-12-20T07:26:35;0.40;;;0.40;;
3939;SDS011;1984;48.312;9.244;2023-12-20T07:29:02;0.60;;;0.57;;
3939;SDS011;1984;48.312;9.244;2023-12-20T07:31:29;0.40;;;0.40;;
3939;SDS011;1984;48.312;9.244;2023-12-20T07:33:54;0.40;;;0.40;;
3939;SDS011;1984;48.312;9.244;2023-12-20T07:36:20;0.70;;;0.70;;
3939;SDS011;1984;48.312;9.244;2023-12-20T07:38:46;0.93;;;0.60;;
3939;SDS011;1984;48.312;9.244;2023-12-20T07:41:12;1.47;;;0.80;;
3939;SDS011;1984;48.312;9.244;2023-12-20T07:43:38;0.50;;;0.50;;
3939;SDS011;1984;48.312;9.244;2023-12-20T07:46:04;0.50;;;0.50;;
3939;SDS011;1984;48.312;9.244;2023-12-20T07:48:30;0.50;;;0.50;;
3939;SDS011;1984;48.312;9.244;2023-12-20T07:50:56;0.60;;;0.60;;
3939;SDS011;1984;48.312;9.244;2023-12-20T07:53:21;0.63;;;0.63;;
3939;SDS011;1984;48.312;9.244;2023-12-20T07:55:47;0.60;;;0.60;;
3939;SDS011;1984;48.312;9.244;2023-12-20T07:58:12;0.50;;;0.50;;
3939;SDS011;1984;48.312;9.244;2023-12-20T08:00:38;0.60;;;0.60;;
3939;SDS011;1984;48.312;9.244;2023-12-20T08:03:04;0.90;;;0.80;;
3939;SDS011;1984;48.312;9.244;2023-12-20T08:05:29;0.70;;;0.70;;
3939;SDS011;1984;48.312;9.244;2023-12-20T08:07:55;1.50;;;1.03;;
3939;SDS011;1984;48.312;9.244;2023-12-20T08:10:20;0.50;;;0.50;;
3939;SDS011;1984;48.312;9.244;2023-12-20T08:12:46;0.50;;;0.50;;
3939;SDS011;1984;48.312;9.244;2023-12-20T08:15:11;0.50;;;0.50;;
3939;SDS011;1984;48.312;9.244;2023-12-20T08:17:37;0.50;;;0.50;;
3939;SDS011;1984;48.312;9.244;2023-12-20T08:20:02;0.53;;;0.53;;
3939;SDS011;1984;48.312;9.244;2023-12-20T08:22:29;0.40;;;0.40;;
3939;SDS011;1984;48.312;9.244;2023-12-20T08:24:55;0.50;;;0.50;;
3939;SDS011;1984;48.312;9.244;2023-12-20T08:27:20;0.50;;;0.50;;
3939;SDS011;1984;48.312;9.244;2023-12-20T08:29:46;0.43;;;0.43;;
3939;SDS011;1984;48.312;9.244;2023-12-20T08:32:12;0.60;;;0.60;;
3939;SDS011;1984;48.312;9.244;2023-12-20T08:34:37;0.40;;;0.40;;
3939;SDS011;1984;48.312;9.244;2023-12-20T08:37:03;1.50;;;0.80;;
3939;SDS011;1984;48.312;9.244;2023-12-20T08:39:28;0.60;;;0.60;;
3939;SDS011;1984;48.312;9.244;2023-12-20T08:41:55;0.60;;;0.60;;
3939;SDS011;1984;48.312;9.244;2023-12-20T08:44:20;0.50;;;0.50;;
3939;SDS011;1984;48.312;9.244;2023-12-20T08:46:47;0.40;;;0.40;;
3939;SDS011;1984;48.312;9.244;2023-12-20T08:49:13;1.53;;;0.70;;
3939;SDS011;1984;48.312;9.244;2023-12-20T08:51:39;0.67;;;0.67;;
3939;SDS011;1984;48.312;9.244;2023-12-20T08:54:06;0.50;;;0.50;;
3939;SDS011;1984;48.312;9.244;2023-12-20T08:56:33;0.50;;;0.50;;
3939;SDS011;1984;48.312;9.244;2023-12-20T08:58:59;0.40;;;0.40;;
3939;SDS011;1984;48.312;9.244;2023-12-20T09:01:24;0.80;;;0.47;;
3939;SDS011;1984;48.312;9.244;2023-12-20T09:03:50;0.40;;;0.40;;
3939;SDS011;1984;48.312;9.244;2023-12-20T09:06:15;0.40;;;0.40;;
3939;SDS011;1984;48.312;9.244;2023-12-20T09:08:41;0.50;;;0.50;;
3939;SDS011;1984;48.312;9.244;2023-12-20T09:11:06;0.60;;;0.60;;
3939;SDS011;1984;48.312;9.244;2023-12-20T09:13:32;0.60;;;0.40;;
3939;SDS011;1984;48.312;9.244;2023-12-20T09:15:58;0.50;;;0.50;;
3939;SDS011;1984;48.312;9.244;2023-12-20T09:18:23;0.40;;;0.40;;
3939;SDS011;1984;48.312;9.244;2023-12-20T09:20:49;0.57;;;0.50;;
3939;SDS011;1984;48.312;9.244;2023-12-20T09:23:15;0.50;;;0.50;;
3939;SDS011;1984;48.312;9.244;2023-12-20T09:25:40;0.70;;;0.50;;
3939;SDS011;1984;48.312;9.244;2023-12-20T09:28:06;0.50;;;0.50;;
3939;SDS011;1984;48.312;9.244;2023-12-20T09:30:31;0.50;;;0.50;;
3939;SDS011;1984;48.312;9.244;2023-12-20T09:32:57;0.40;;;0.40;;
3939;SDS011;1984;48.312;9.244;2023-12-20T09:35:23;0.40;;;0.40;;
3939;SDS011;1984;48.312;9.244;2023-12-20T09:37:48;0.70;;;0.53;;
3939;SDS011;1984;48.312;9.244;2023-12-20T09:40:14;0.50;;;0.50;;
3939;SDS011;1984;48.312;9.244;2023-12-20T09:45:15;0.60;;;0.57;;
3939;SDS011;1984;48.312;9.244;2023-12-20T09:47:44;0.50;;;0.50;;
3939;SDS011;1984;48.312;9.244;2023-12-20T09:50:10;0.47;;;0.47;;
3939;SDS011;1984;48.312;9.244;2023-12-20T09:52:37;0.50;;;0.50;;
3939;SDS011;1984;48.312;9.244;2023-12-20T09:55:04;0.50;;;0.50;;
3939;SDS011;1984;48.312;9.244;2023-12-20T09:57:33;0.60;;;0.60;;
3939;SDS011;1984;48.312;9.244;2023-12-20T09:59:58;0.60;;;0.60;;
3939;SDS011;1984;48.312;9.244;2023-12-20T10:02:24;0.87;;;0.50;;
3939;SDS011;1984;48.312;9.244;2023-12-20T10:04:54;1.27;;;0.50;;
3939;SDS011;1984;48.312;9.244;2023-12-20T10:07:20;1.33;;;1.10;;
3939;SDS011;1984;48.312;9.244;2023-12-20T10:09:47;2.20;;;1.20;;
3939;SDS011;1984;48.312;9.244;2023-12-20T10:12:13;0.60;;;0.60;;
3939;SDS011;1984;48.312;9.244;2023-12-20T10:14:39;0.70;;;0.70;;
3939;SDS011;1984;48.312;9.244;2023-12-20T10:17:04;1.27;;;1.10;;
3939;SDS011;1984;48.312;9.244;2023-12-20T10:19:31;2.57;;;1.90;;
3939;SDS011;1984;48.312;9.244;2023-12-20T10:21:57;1.37;;;1.27;;
3939;SDS011;1984;48.312;9.244;2023-12-20T10:24:25;1.30;;;1.20;;
3939;SDS011;1984;48.312;9.244;2023-12-20T10:27:02;0.80;;;0.80;;
3939;SDS011;1984;48.312;9.244;2023-12-20T10:29:33;2.73;;;1.50;;
3939;SDS011;1984;48.312;9.244;2023-12-20T10:34:46;2.73;;;0.80;;
3939;SDS011;1984;48.312;9.244;2023-12-20T10:37:12;1.00;;;1.00;;
3939;SDS011;1984;48.312;9.244;2023-12-20T10:39:37;0.70;;;0.70;;
3939;SDS011;1984;48.312;9.244;2023-12-20T10:42:04;1.77;;;0.90;;
3939;SDS011;1984;48.312;9.244;2023-12-20T10:44:30;1.33;;;0.90;;
3939;SDS011;1984;48.312;9.244;2023-12-20T10:46:56;0.80;;;0.80;;
3939;SDS011;1984;48.312;9.244;2023-12-20T10:49:23;3.53;;;1.20;;
3939;SDS011;1984;48.312;9.244;2023-12-20T10:51:51;0.80;;;0.80;;
3939;SDS011;1984;48.312;9.244;2023-12-20T10:54:19;1.07;;;0.97;;
3939;SDS011;1984;48.312;9.244;2023-12-20T10:56:44;2.20;;;0.90;;
3939;SDS011;1984;48.312;9.244;2023-12-20T10:59:11;2.57;;;0.93;;
3939;SDS011;1984;48.312;9.244;2023-12-20T11:01:39;1.10;;;1.07;;
3939;SDS011;1984;48.312;9.244;2023-12-20T11:04:07;1.37;;;1.27;;
3939;SDS011;1984;48.312;9.244;2023-12-20T11:06:37;0.90;;;0.90;;
3939;SDS011;1984;48.312;9.244;2023-12-20T11:14:25;1.00;;;1.00;;
3939;SDS011;1984;48.312;9.244;2023-12-20T11:17:05;2.53;;;1.20;;
3939;SDS011;1984;48.312;9.244;2023-12-20T11:22:21;1.40;;;1.30;;
3939;SDS011;1984;48.312;9.244;2023-12-20T11:24:51;5.23;;;1.40;;
3939;SDS011;1984;48.312;9.244;2023-12-20T11:27:18;3.33;;;1.13;;
3939;SDS011;1984;48.312;9.244;2023-12-20T11:29:57;3.33;;;1.27;;
3939;SDS011;1984;48.312;9.244;2023-12-20T11:34:56;2.63;;;1.13;;
3939;SDS011;1984;48.312;9.244;2023-12-20T11:37:30;1.37;;;1.27;;
3939;SDS011;1984;48.312;9.244;2023-12-20T11:40:06;2.17;;;1.50;;
3939;SDS011;1984;48.312;9.244;2023-12-20T11:42:50;2.40;;;1.70;;
3939;SDS011;1984;48.312;9.244;2023-12-20T11:45:16;2.87;;;1.20;;
3939;SDS011;1984;48.312;9.244;2023-12-20T11:47:48;2.87;;;1.67;;
3939;SDS011;1984;48.312;9.244;2023-12-20T11:50:20;1.60;;;1.47;;
3939;SDS011;1984;48.312;9.244;2023-12-20T11:52:47;1.43;;;1.20;;
3939;SDS011;1984;48.312;9.244;2023-12-20T11:55:13;2.30;;;2.10;;
3939;SDS011;1984;48.312;9.244;2023-12-20T11:57:39;1.70;;;1.60;;
3939;SDS011;1984;48.312;9.244;2023-12-20T12:00:05;2.87;;;1.60;;
3939;SDS011;1984;48.312;9.244;2023-12-20T12:02:31;1.70;;;1.10;;
3939;SDS011;1984;48.312;9.244;2023-12-20T12:04:57;1.43;;;1.33;;
3939;SDS011;1984;48.312;9.244;2023-12-20T12:07:24;1.07;;;1.07;;
3939;SDS011;1984;48.312;9.244;2023-12-20T12:09:49;1.53;;;1.23;;
3939;SDS011;1984;48.312;9.244;2023-12-20T12:12:15;1.70;;;1.30;;
3939;SDS011;1984;48.312;9.244;2023-12-20T12:14:41;1.20;;;1.10;;
3939;SDS011;1984;48.312;9.244;2023-12-20T12:17:13;2.30;;;1.50;;
3939;SDS011;1984;48.312;9.244;2023-12-20T12:19:39;2.20;;;1.40;;
3939;SDS011;1984;48.312;9.244;2023-12-20T12:22:06;4.27;;;1.43;;
3939;SDS011;1984;48.312;9.244;2023-12-20T12:24:41;5.23;;;1.90;;
3939;SDS011;1984;48.312;9.244;2023-12-20T12:27:10;1.37;;;1.27;;
3939;SDS011;1984;48.312;9.244;2023-12-20T12:29:36;1.47;;;1.40;;
3939;SDS011;1984;48.312;9.244;2023-12-20T12:32:06;2.10;;;1.30;;
3939;SDS011;1984;48.312;9.244;2023-12-20T12:34:33;1.50;;;1.40;;
3939;SDS011;1984;48.312;9.244;2023-12-20T12:36:59;1.70;;;1.50;;
3939;SDS011;1984;48.312;9.244;2023-12-20T12:39:25;1.57;;;1.47;;
3939;SDS011;1984;48.312;9.244;2023-12-20T12:41:51;1.83;;;1.20;;
3939;SDS011;1984;48.312;9.244;2023-12-20T12:44:17;2.60;;;1.60;;
3939;SDS011;1984;48.312;9.244;2023-12-20T12:46:43;1.67;;;1.57;;
3939;SDS011;1984;48.312;9.244;2023-12-20T12:49:09;2.20;;;1.70;;
3939;SDS011;1984;48.312;9.244;2023-12-20T12:51:35;1.60;;;1.50;;
3939;SDS011;1984;48.312;9.244;2023-12-20T12:54:00;1.47;;;1.37;;
3939;SDS011;1984;48.312;9.244;2023-12-20T12:56:26;2.20;;;1.70;;
3939;SDS011;1984;48.312;9.244;2023-12-20T12:58:51;2.97;;;2.00;;
3939;SDS011;1984;48.312;9.244;2023-12-20T13:01:17;2.50;;;1.50;;
3939;SDS011;1984;48.312;9.244;2023-12-20T13:03:42;2.97;;;1.20;;
3939;SDS011;1984;48.312;9.244;2023-12-20T13:06:08;1.93;;;1.73;;
3939;SDS011;1984;48.312;9.244;2023-12-20T13:08:34;2.27;;;1.30;;
3939;SDS011;1984;48.312;9.244;2023-12-20T13:10:59;1.33;;;1.17;;
3939;SDS011;1984;48.312;9.244;2023-12-20T13:13:26;1.60;;;1.10;;
3939;SDS011;1984;48.312;9.244;2023-12-20T13:15:52;1.80;;;1.40;;
3939;SDS011;1984;48.312;9.244;2023-12-20T13:18:20;1.40;;;1.30;;
3939;SDS011;1984;48.312;9.244;2023-12-20T13:20:46;2.50;;;1.60;;
3939;SDS011;1984;48.312;9.244;2023-12-20T13:23:11;1.93;;;1.60;;
3939;SDS011;1984;48.312;9.244;2023-12-20T13:25:37;1.10;;;1.00;;
3939;SDS011;1984;48.312;9.244;2023-12-20T13:28:03;1.73;;;1.40;;
3939;SDS011;1984;48.312;9.244;2023-12-20T13:30:29;1.43;;;1.33;;
3939;SDS011;1984;48.312;9.244;2023-12-20T13:32:55;1.30;;;1.20;;
3939;SDS011;1984;48.312;9.244;2023-12-20T13:35:20;2.13;;;1.30;;
3939;SDS011;1984;48.312;9.244;2023-12-20T13:37:46;5.30;;;1.20;;
3939;SDS011;1984;48.312;9.244;2023-12-20T13:40:11;1.30;;;1.20;;
3939;SDS011;1984;48.312;9.244;2023-12-20T13:42:37;2.37;;;1.20;;
3939;SDS011;1984;48.312;9.244;2023-12-20T13:45:04;4.80;;;2.23;;
3939;SDS011;1984;48.312;9.244;2023-12-20T13:47:30;5.50;;;1.60;;
3939;SDS011;1984;48.312;9.244;2023-12-20T13:49:56;3.10;;;1.40;;
3939;SDS011;1984;48.312;9.244;2023-12-20T13:52:22;5.00;;;1.23;;
3939;SDS011;1984;48.312;9.244;2023-12-20T13:54:47;3.77;;;1.50;;
3939;SDS011;1984;48.312;9.244;2023-12-20T13:57:13;6.10;;;2.10;;
3939;SDS011;1984;48.312;9.244;2023-12-20T13:59:38;1.63;;;1.47;;
3939;SDS011;1984;48.312;9.244;2023-12-20T14:02:04;1.47;;;1.23;;
3939;SDS011;1984;48.312;9.244;2023-12-20T14:04:30;2.20;;;1.60;;
3939;SDS011;1984;48.312;9.244;2023-12-20T14:06:56;2.23;;;0.90;;
3939;SDS011;1984;48.312;9.244;2023-12-20T14:09:22;7.70;;;1.40;;
3939;SDS011;1984;48.312;9.244;2023-12-20T14:11:48;8.33;;;1.20;;
3939;SDS011;1984;48.312;9.244;2023-12-20T14:14:13;2.40;;;1.23;;
3939;SDS011;1984;48.312;9.244;2023-12-20T14:16:39;4.93;;;1.30;;
3939;SDS011;1984;48.312;9.244;2023-12-20T14:19:04;2.33;;;1.17;;
3939;SDS011;1984;48.312;9.244;2023-12-20T14:21:32;0.70;;;0.70;;
3939;SDS011;1984;48.312;9.244;2023-12-20T14:23:58;3.57;;;1.13;;
3939;SDS011;1984;48.312;9.244;2023-12-20T14:26:24;4.63;;;1.33;;
3939;SDS011;1984;48.312;9.244;2023-12-20T14:28:49;2.50;;;1.20;;
3939;SDS011;1984;48.312;9.244;2023-12-20T14:31:15;5.17;;;1.80;;
3939;SDS011;1984;48.312;9.244;2023-12-20T14:33:40;2.23;;;1.23;;
3939;SDS011;1984;48.312;9.244;2023-12-20T14:36:07;3.53;;;0.70;;
3939;SDS011;1984;48.312;9.244;2023-12-20T14:38:33;0.83;;;0.70;;
3939;SDS011;1984;48.312;9.244;2023-12-20T14:40:59;2.30;;;0.80;;
3939;SDS011;1984;48.312;9.244;2023-12-20T14:43:25;1.83;;;0.90;;
3939;SDS011;1984;48.312;9.244;2023-12-20T14:45:54;0.93;;;0.93;;
3939;SDS011;1984;48.312;9.244;2023-12-20T14:48:20;1.90;;;0.93;;
3939;SDS011;1984;48.312;9.244;2023-12-20T14:50:46;1.17;;;0.90;;
3939;SDS011;1984;48.312;9.244;2023-12-20T14:53:13;0.70;;;0.70;;
3939;SDS011;1984;48.312;9.244;2023-12-20T14:55:40;3.17;;;1.10;;
3939;SDS011;1984;48.312;9.244;2023-12-20T14:58:05;3.93;;;1.50;;
3939;SDS011;1984;48.312;9.244;2023-12-20T15:00:31;1.30;;;1.20;;
3939;SDS011;1984;48.312;9.244;2023-12-20T15:02:56;3.23;;;1.23;;
3939;SDS011;1984;48.312;9.244;2023-12-20T15:05:22;7.40;;;1.23;;
3939;SDS011;1984;48.312;9.244;2023-12-20T15:07:47;3.13;;;1.17;;
3939;SDS011;1984;48.312;9.244;2023-12-20T15:10:13;3.70;;;1.40;;
3939;SDS011;1984;48.312;9.244;2023-12-20T15:12:39;2.87;;;0.80;;
3939;SDS011;1984;48.312;9.244;2023-12-20T15:15:05;6.27;;;1.20;;
3939;SDS011;1984;48.312;9.244;2023-12-20T15:17:31;2.53;;;1.00;;
3939;SDS011;1984;48.312;9.244;2023-12-20T15:19:56;2.53;;;1.77;;
3939;SDS011;1984;48.312;9.244;2023-12-20T15:22:22;6.83;;;1.30;;
3939;SDS011;1984;48.312;9.244;2023-12-20T15:24:48;3.30;;;1.57;;